sensor_id;sensor_type;location;lat;lon;timestamp;P1;durP1;ratioP1;P2;durP2;ratioP2
52268;SDS011;38224;50.950;4.100;2023-02-05T00:01:02;40.40;;;23.03;;
52268;SDS011;38224;50.950;4.100;2023-02-05T00:03:27;37.25;;;23.17;;
52268;SDS011;38224;50.950;4.100;2023-02-05T00:05:52;39.87;;;22.90;;
52268;SDS011;38224;50.950;4.100;2023-02-05T00:08:18;42.50;;;23.65;;
52268;SDS011;38224;50.950;4.100;2023-02-05T00:10:43;45.60;;;23.43;;
52268;SDS011;38224;50.950;4.100;2023-02-05T00:13:08;38.88;;;22.42;;
52268;SDS011;38224;50.950;4.100;2023-02-05T00:15:34;37.80;;;23.17;;
52268;SDS011;38224;50.950;4.100;2023-02-05T00:18:03;40.22;;;23.88;;
52268;SDS011;38224;50.950;4.100;2023-02-05T00:20:28;39.22;;;23.77;;
52268;SDS011;38224;50.950;4.100;2023-02-05T00:22:54;39.55;;;23.67;;
52268;SDS011;38224;50.950;4.100;2023-02-05T00:25:20;39.30;;;22.20;;
52268;SDS011;38224;50.950;4.100;2023-02-05T00:27:46;39.97;;;22.20;;
52268;SDS011;38224;50.950;4.100;2023-02-05T00:30:11;35.63;;;21.67;;
52268;SDS011;38224;50.950;4.100;2023-02-05T00:32:36;38.00;;;22.88;;
52268;SDS011;38224;50.950;4.100;2023-02-05T00:35:02;41.80;;;21.13;;
52268;SDS011;38224;50.950;4.100;2023-02-05T00:37:27;37.92;;;22.38;;
52268;SDS011;38224;50.950;4.100;2023-02-05T00:39:52;42.50;;;21.90;;
52268;SDS011;38224;50.950;4.100;2023-02-05T00:42:17;36.50;;;21.47;;
52268;SDS011;38224;50.950;4.100;2023-02-05T00:44:43;38.47;;;21.63;;
52268;SDS011;38224;50.950;4.100;2023-02-05T00:47:08;34.92;;;20.08;;
52268;SDS011;38224;50.950;4.100;2023-02-05T00:49:33;39.57;;;20.83;;
52268;SDS011;38224;50.950;4.100;2023-02-05T00:51:58;33.50;;;19.70;;
52268;SDS011;38224;50.950;4.100;2023-02-05T00:54:24;35.35;;;20.65;;
52268;SDS011;38224;50.950;4.100;2023-02-05T00:56:49;35.72;;;19.75;;
52268;SDS011;38224;50.950;4.100;2023-02-05T00:59:14;32.73;;;18.77;;
52268;SDS011;38224;50.950;4.100;2023-02-05T01:01:40;32.73;;;18.97;;
52268;SDS011;38224;50.950;4.100;2023-02-05T01:04:05;28.87;;;17.53;;
52268;SDS011;38224;50.950;4.100;2023-02-05T01:06:30;29.38;;;17.25;;
52268;SDS011;38224;50.950;4.100;2023-02-05T01:08:55;31.70;;;17.27;;
52268;SDS011;38224;50.950;4.100;2023-02-05T01:11:21;28.80;;;17.35;;
52268;SDS011;38224;50.950;4.100;2023-02-05T01:13:46;26.37;;;16.77;;
52268;SDS011;38224;50.950;4.100;2023-02-05T01:16:11;27.40;;;16.08;;
52268;SDS011;38224;50.950;4.100;2023-02-05T01:18:36;26.80;;;14.67;;
52268;SDS011;38224;50.950;4.100;2023-02-05T01:21:02;22.80;;;13.30;;
52268;SDS011;38224;50.950;4.100;2023-02-05T01:23:27;23.50;;;13.77;;
52268;SDS011;38224;50.950;4.100;2023-02-05T01:25:52;22.50;;;13.20;;
52268;SDS011;38224;50.950;4.100;2023-02-05T01:28:17;20.33;;;12.53;;
52268;SDS011;38224;50.950;4.100;2023-02-05T01:30:47;20.00;;;11.68;;
52268;SDS011;38224;50.950;4.100;2023-02-05T01:33:12;26.73;;;12.35;;
52268;SDS011;38224;50.950;4.100;2023-02-05T01:35:39;18.85;;;11.50;;
52268;SDS011;38224;50.950;4.100;2023-02-05T01:38:04;26.40;;;11.48;;
52268;SDS011;38224;50.950;4.100;2023-02-05T01:40:29;18.42;;;10.18;;
52268;SDS011;38224;50.950;4.100;2023-02-05T01:42:55;21.55;;;10.57;;
52268;SDS011;38224;50.950;4.100;2023-02-05T01:47:46;19.40;;;8.97;;
52268;SDS011;38224;50.950;4.100;2023-02-05T01:50:11;18.88;;;9.43;;
52268;SDS011;38224;50.950;4.100;2023-02-05T01:52:37;16.92;;;9.50;;
52268;SDS011;38224;50.950;4.100;2023-02-05T01:55:02;14.27;;;8.30;;
52268;SDS011;38224;50.950;4.100;2023-02-05T01:57:28;18.20;;;9.23;;
52268;SDS011;38224;50.950;4.100;2023-02-05T01:59:53;15.38;;;9.18;;
52268;SDS011;38224;50.950;4.100;2023-02-05T02:02:18;15.77;;;7.63;;
52268;SDS011;38224;50.950;4.100;2023-02-05T02:04:49;20.10;;;8.90;;
52268;SDS011;38224;50.950;4.100;2023-02-05T02:07:15;16.63;;;9.50;;
52268;SDS011;38224;50.950;4.100;2023-02-05T02:09:42;14.40;;;8.68;;
52268;SDS011;38224;50.950;4.100;2023-02-05T02:12:08;14.95;;;8.10;;
52268;SDS011;38224;50.950;4.100;2023-02-05T02:14:34;18.13;;;8.48;;
52268;SDS011;38224;50.950;4.100;2023-02-05T02:16:59;12.30;;;7.63;;
52268;SDS011;38224;50.950;4.100;2023-02-05T02:32:23;10.75;;;7.03;;
52268;SDS011;38224;50.950;4.100;2023-02-05T02:35:02;13.15;;;6.75;;
52268;SDS011;38224;50.950;4.100;2023-02-05T02:37:32;12.60;;;6.50;;
52268;SDS011;38224;50.950;4.100;2023-02-05T02:40:00;13.98;;;6.20;;
52268;SDS011;38224;50.950;4.100;2023-02-05T02:42:38;9.50;;;5.82;;
52268;SDS011;38224;50.950;4.100;2023-02-05T02:45:08;9.68;;;5.72;;
52268;SDS011;38224;50.950;4.100;2023-02-05T02:47:39;9.75;;;6.57;;
52268;SDS011;38224;50.950;4.100;2023-02-05T02:50:49;10.77;;;6.22;;
52268;SDS011;38224;50.950;4.100;2023-02-05T02:52:58;9.77;;;5.82;;
52268;SDS011;38224;50.950;4.100;2023-02-05T02:55:26;7.97;;;5.53;;
52268;SDS011;38224;50.950;4.100;2023-02-05T02:57:52;11.38;;;6.05;;
52268;SDS011;38224;50.950;4.100;2023-02-05T03:00:19;15.38;;;6.28;;
52268;SDS011;38224;50.950;4.100;2023-02-05T03:02:46;12.50;;;6.10;;
52268;SDS011;38224;50.950;4.100;2023-02-05T03:05:16;9.70;;;6.25;;
52268;SDS011;38224;50.950;4.100;2023-02-05T03:07:47;11.18;;;5.22;;
52268;SDS011;38224;50.950;4.100;2023-02-05T03:10:17;14.68;;;6.45;;
52268;SDS011;38224;50.950;4.100;2023-02-05T03:12:44;10.20;;;6.20;;
52268;SDS011;38224;50.950;4.100;2023-02-05T03:15:10;15.45;;;5.95;;
52268;SDS011;38224;50.950;4.100;2023-02-05T03:17:35;11.35;;;5.22;;
52268;SDS011;38224;50.950;4.100;2023-02-05T03:20:06;17.50;;;5.88;;
52268;SDS011;38224;50.950;4.100;2023-02-05T03:22:31;13.55;;;6.28;;
52268;SDS011;38224;50.950;4.100;2023-02-05T03:24:57;10.05;;;5.85;;
52268;SDS011;38224;50.950;4.100;2023-02-05T03:27:22;16.08;;;5.88;;
52268;SDS011;38224;50.950;4.100;2023-02-05T03:29:47;13.52;;;6.43;;
52268;SDS011;38224;50.950;4.100;2023-02-05T03:37:30;13.37;;;6.23;;
52268;SDS011;38224;50.950;4.100;2023-02-05T03:40:04;17.05;;;7.50;;
52268;SDS011;38224;50.950;4.100;2023-02-05T03:49:57;19.00;;;7.80;;
52268;SDS011;38224;50.950;4.100;2023-02-05T03:52:34;14.37;;;7.97;;
52268;SDS011;38224;50.950;4.100;2023-02-05T03:55:08;16.17;;;8.15;;
52268;SDS011;38224;50.950;4.100;2023-02-05T03:57:53;22.88;;;8.85;;
52268;SDS011;38224;50.950;4.100;2023-02-05T04:00:21;15.30;;;8.35;;
52268;SDS011;38224;50.950;4.100;2023-02-05T04:02:47;20.20;;;9.23;;
52268;SDS011;38224;50.950;4.100;2023-02-05T04:05:12;17.33;;;8.87;;
52268;SDS011;38224;50.950;4.100;2023-02-05T04:07:38;20.05;;;9.85;;
52268;SDS011;38224;50.950;4.100;2023-02-05T04:10:03;18.20;;;10.30;;
52268;SDS011;38224;50.950;4.100;2023-02-05T04:12:28;19.35;;;10.57;;
52268;SDS011;38224;50.950;4.100;2023-02-05T04:14:53;15.32;;;9.43;;
52268;SDS011;38224;50.950;4.100;2023-02-05T04:17:19;20.87;;;10.30;;
52268;SDS011;38224;50.950;4.100;2023-02-05T04:19:44;23.17;;;9.87;;
52268;SDS011;38224;50.950;4.100;2023-02-05T04:22:09;21.90;;;10.27;;
52268;SDS011;38224;50.950;4.100;2023-02-05T04:24:35;18.57;;;10.57;;
52268;SDS011;38224;50.950;4.100;2023-02-05T04:27:00;21.50;;;10.93;;
52268;SDS011;38224;50.950;4.100;2023-02-05T04:29:25;19.67;;;9.77;;
52268;SDS011;38224;50.950;4.100;2023-02-05T04:31:50;23.48;;;10.85;;
52268;SDS011;38224;50.950;4.100;2023-02-05T04:34:16;22.50;;;11.15;;
52268;SDS011;38224;50.950;4.100;2023-02-05T04:36:41;25.87;;;12.57;;
52268;SDS011;38224;50.950;4.100;2023-02-05T04:39:06;27.98;;;13.20;;
52268;SDS011;38224;50.950;4.100;2023-02-05T04:41:31;23.17;;;13.90;;
52268;SDS011;38224;50.950;4.100;2023-02-05T04:43:57;22.43;;;14.33;;
52268;SDS011;38224;50.950;4.100;2023-02-05T04:46:22;29.87;;;15.17;;
52268;SDS011;38224;50.950;4.100;2023-02-05T04:48:47;32.95;;;16.23;;
52268;SDS011;38224;50.950;4.100;2023-02-05T04:51:12;33.97;;;17.53;;
52268;SDS011;38224;50.950;4.100;2023-02-05T04:53:38;28.27;;;17.90;;
52268;SDS011;38224;50.950;4.100;2023-02-05T04:56:08;32.80;;;19.08;;
52268;SDS011;38224;50.950;4.100;2023-02-05T04:58:33;37.35;;;19.13;;
52268;SDS011;38224;50.950;4.100;2023-02-05T05:00:59;31.95;;;18.90;;
52268;SDS011;38224;50.950;4.100;2023-02-05T05:03:24;29.52;;;20.13;;
52268;SDS011;38224;50.950;4.100;2023-02-05T05:05:49;32.13;;;20.60;;
52268;SDS011;38224;50.950;4.100;2023-02-05T05:08:15;33.22;;;20.95;;
52268;SDS011;38224;50.950;4.100;2023-02-05T05:10:40;39.20;;;22.25;;
52268;SDS011;38224;50.950;4.100;2023-02-05T05:13:05;37.07;;;21.40;;
52268;SDS011;38224;50.950;4.100;2023-02-05T05:15:30;41.17;;;22.53;;
52268;SDS011;38224;50.950;4.100;2023-02-05T05:17:56;44.72;;;22.98;;
52268;SDS011;38224;50.950;4.100;2023-02-05T05:20:21;38.47;;;22.73;;
52268;SDS011;38224;50.950;4.100;2023-02-05T05:22:46;40.87;;;22.10;;
52268;SDS011;38224;50.950;4.100;2023-02-05T05:25:11;39.67;;;24.77;;
52268;SDS011;38224;50.950;4.100;2023-02-05T05:27:37;38.30;;;24.55;;
52268;SDS011;38224;50.950;4.100;2023-02-05T05:30:02;44.40;;;25.17;;
52268;SDS011;38224;50.950;4.100;2023-02-05T05:32:27;40.70;;;23.90;;
52268;SDS011;38224;50.950;4.100;2023-02-05T05:34:53;43.38;;;26.63;;
52268;SDS011;38224;50.950;4.100;2023-02-05T05:37:21;43.55;;;25.90;;
52268;SDS011;38224;50.950;4.100;2023-02-05T05:39:46;38.95;;;27.02;;
52268;SDS011;38224;50.950;4.100;2023-02-05T05:42:30;41.30;;;25.23;;
52268;SDS011;38224;50.950;4.100;2023-02-05T05:45:14;39.90;;;26.23;;
52268;SDS011;38224;50.950;4.100;2023-02-05T05:47:39;42.83;;;24.77;;
52268;SDS011;38224;50.950;4.100;2023-02-05T05:50:04;45.65;;;26.13;;
52268;SDS011;38224;50.950;4.100;2023-02-05T05:52:30;42.15;;;26.65;;
52268;SDS011;38224;50.950;4.100;2023-02-05T05:54:55;41.38;;;25.63;;
52268;SDS011;38224;50.950;4.100;2023-02-05T05:57:20;41.13;;;27.73;;
52268;SDS011;38224;50.950;4.100;2023-02-05T05:59:46;47.53;;;27.48;;
52268;SDS011;38224;50.950;4.100;2023-02-05T06:02:11;39.47;;;26.67;;
52268;SDS011;38224;50.950;4.100;2023-02-05T06:04:36;39.47;;;26.05;;
52268;SDS011;38224;50.950;4.100;2023-02-05T06:07:01;36.93;;;24.30;;
52268;SDS011;38224;50.950;4.100;2023-02-05T06:09:27;39.22;;;23.15;;
52268;SDS011;38224;50.950;4.100;2023-02-05T06:11:52;35.10;;;21.65;;
52268;SDS011;38224;50.950;4.100;2023-02-05T06:14:17;26.13;;;16.45;;
52268;SDS011;38224;50.950;4.100;2023-02-05T06:16:43;20.30;;;11.98;;
52268;SDS011;38224;50.950;4.100;2023-02-05T06:19:08;24.97;;;7.53;;
52268;SDS011;38224;50.950;4.100;2023-02-05T06:21:33;18.10;;;5.85;;
52268;SDS011;38224;50.950;4.100;2023-02-05T06:23:58;14.70;;;4.05;;
52268;SDS011;38224;50.950;4.100;2023-02-05T06:26:24;18.38;;;3.40;;
52268;SDS011;38224;50.950;4.100;2023-02-05T06:28:49;19.25;;;4.07;;
52268;SDS011;38224;50.950;4.100;2023-02-05T06:31:15;19.90;;;3.08;;
52268;SDS011;38224;50.950;4.100;2023-02-05T06:33:41;15.80;;;2.63;;
52268;SDS011;38224;50.950;4.100;2023-02-05T06:36:06;19.35;;;3.83;;
52268;SDS011;38224;50.950;4.100;2023-02-05T06:38:32;24.25;;;3.65;;
52268;SDS011;38224;50.950;4.100;2023-02-05T06:40:57;17.52;;;2.55;;
52268;SDS011;38224;50.950;4.100;2023-02-05T06:43:22;25.55;;;4.10;;
52268;SDS011;38224;50.950;4.100;2023-02-05T06:45:47;19.93;;;2.93;;
52268;SDS011;38224;50.950;4.100;2023-02-05T06:48:13;16.40;;;2.58;;
52268;SDS011;38224;50.950;4.100;2023-02-05T06:50:38;13.40;;;2.45;;
52268;SDS011;38224;50.950;4.100;2023-02-05T06:53:03;20.77;;;3.15;;
52268;SDS011;38224;50.950;4.100;2023-02-05T06:55:29;25.70;;;2.80;;
52268;SDS011;38224;50.950;4.100;2023-02-05T06:57:54;23.45;;;2.83;;
52268;SDS011;38224;50.950;4.100;2023-02-05T07:00:19;13.67;;;3.03;;
52268;SDS011;38224;50.950;4.100;2023-02-05T07:02:44;18.52;;;2.60;;
52268;SDS011;38224;50.950;4.100;2023-02-05T07:05:10;18.88;;;2.63;;
52268;SDS011;38224;50.950;4.100;2023-02-05T07:07:35;15.52;;;2.42;;
52268;SDS011;38224;50.950;4.100;2023-02-05T07:10:01;16.03;;;2.83;;
52268;SDS011;38224;50.950;4.100;2023-02-05T07:12:26;14.23;;;2.80;;
52268;SDS011;38224;50.950;4.100;2023-02-05T07:14:51;18.90;;;2.40;;
52268;SDS011;38224;50.950;4.100;2023-02-05T07:17:16;21.98;;;2.30;;
52268;SDS011;38224;50.950;4.100;2023-02-05T07:19:42;16.67;;;3.15;;
52268;SDS011;38224;50.950;4.100;2023-02-05T07:22:07;18.07;;;2.90;;
52268;SDS011;38224;50.950;4.100;2023-02-05T07:24:33;14.73;;;2.70;;
52268;SDS011;38224;50.950;4.100;2023-02-05T07:26:58;17.48;;;2.78;;
52268;SDS011;38224;50.950;4.100;2023-02-05T07:29:23;20.23;;;2.70;;
52268;SDS011;38224;50.950;4.100;2023-02-05T07:31:49;17.43;;;2.60;;
52268;SDS011;38224;50.950;4.100;2023-02-05T07:34:14;11.45;;;2.92;;
52268;SDS011;38224;50.950;4.100;2023-02-05T07:36:39;15.30;;;3.00;;
52268;SDS011;38224;50.950;4.100;2023-02-05T07:39:04;14.82;;;2.63;;
52268;SDS011;38224;50.950;4.100;2023-02-05T07:41:30;17.05;;;3.15;;
52268;SDS011;38224;50.950;4.100;2023-02-05T07:43:55;14.27;;;2.70;;
52268;SDS011;38224;50.950;4.100;2023-02-05T07:46:20;31.03;;;6.70;;
52268;SDS011;38224;50.950;4.100;2023-02-05T07:48:46;25.08;;;4.78;;
52268;SDS011;38224;50.950;4.100;2023-02-05T07:51:15;18.80;;;3.58;;
52268;SDS011;38224;50.950;4.100;2023-02-05T07:53:41;23.42;;;3.50;;
52268;SDS011;38224;50.950;4.100;2023-02-05T07:56:06;25.42;;;3.53;;
52268;SDS011;38224;50.950;4.100;2023-02-05T07:58:31;24.67;;;4.60;;
52268;SDS011;38224;50.950;4.100;2023-02-05T08:01:00;20.55;;;4.47;;
52268;SDS011;38224;50.950;4.100;2023-02-05T08:03:26;20.40;;;3.45;;
52268;SDS011;38224;50.950;4.100;2023-02-05T08:05:51;23.55;;;4.65;;
52268;SDS011;38224;50.950;4.100;2023-02-05T08:08:16;17.27;;;4.05;;
52268;SDS011;38224;50.950;4.100;2023-02-05T08:10:41;32.28;;;3.90;;
52268;SDS011;38224;50.950;4.100;2023-02-05T08:13:07;20.67;;;3.90;;
52268;SDS011;38224;50.950;4.100;2023-02-05T08:15:32;20.35;;;3.40;;
52268;SDS011;38224;50.950;4.100;2023-02-05T08:17:57;29.10;;;3.90;;
52268;SDS011;38224;50.950;4.100;2023-02-05T08:20:22;23.83;;;3.70;;
52268;SDS011;38224;50.950;4.100;2023-02-05T08:22:48;19.35;;;3.05;;
52268;SDS011;38224;50.950;4.100;2023-02-05T08:25:13;35.70;;;5.35;;
52268;SDS011;38224;50.950;4.100;2023-02-05T08:27:39;34.67;;;6.03;;
52268;SDS011;38224;50.950;4.100;2023-02-05T08:30:06;35.72;;;4.63;;
52268;SDS011;38224;50.950;4.100;2023-02-05T08:32:32;41.85;;;4.47;;
52268;SDS011;38224;50.950;4.100;2023-02-05T08:34:57;28.92;;;3.85;;
52268;SDS011;38224;50.950;4.100;2023-02-05T08:37:23;25.60;;;3.63;;
52268;SDS011;38224;50.950;4.100;2023-02-05T08:39:48;38.40;;;5.28;;
52268;SDS011;38224;50.950;4.100;2023-02-05T08:42:14;21.30;;;3.55;;
52268;SDS011;38224;50.950;4.100;2023-02-05T08:44:39;26.30;;;3.58;;
52268;SDS011;38224;50.950;4.100;2023-02-05T08:47:05;20.70;;;3.65;;
52268;SDS011;38224;50.950;4.100;2023-02-05T08:49:30;30.05;;;3.97;;
52268;SDS011;38224;50.950;4.100;2023-02-05T08:51:55;37.40;;;4.97;;
52268;SDS011;38224;50.950;4.100;2023-02-05T08:54:22;24.23;;;4.85;;
52268;SDS011;38224;50.950;4.100;2023-02-05T08:56:48;32.03;;;4.40;;
52268;SDS011;38224;50.950;4.100;2023-02-05T08:59:13;35.55;;;6.40;;
52268;SDS011;38224;50.950;4.100;2023-02-05T09:01:39;18.38;;;3.97;;
52268;SDS011;38224;50.950;4.100;2023-02-05T09:04:07;27.42;;;4.22;;
52268;SDS011;38224;50.950;4.100;2023-02-05T09:06:32;29.00;;;5.20;;
52268;SDS011;38224;50.950;4.100;2023-02-05T09:08:58;27.23;;;4.90;;
52268;SDS011;38224;50.950;4.100;2023-02-05T09:11:24;32.55;;;5.22;;
52268;SDS011;38224;50.950;4.100;2023-02-05T09:13:51;27.40;;;4.35;;
52268;SDS011;38224;50.950;4.100;2023-02-05T09:16:16;26.75;;;4.30;;
52268;SDS011;38224;50.950;4.100;2023-02-05T09:18:41;24.27;;;3.90;;
52268;SDS011;38224;50.950;4.100;2023-02-05T09:21:07;30.47;;;4.83;;
52268;SDS011;38224;50.950;4.100;2023-02-05T09:23:33;30.50;;;5.38;;
52268;SDS011;38224;50.950;4.100;2023-02-05T09:25:58;27.83;;;4.88;;
52268;SDS011;38224;50.950;4.100;2023-02-05T09:28:24;29.05;;;5.53;;
52268;SDS011;38224;50.950;4.100;2023-02-05T09:30:49;29.75;;;6.15;;
52268;SDS011;38224;50.950;4.100;2023-02-05T09:33:15;32.70;;;4.82;;
52268;SDS011;38224;50.950;4.100;2023-02-05T09:35:41;33.95;;;5.68;;
52268;SDS011;38224;50.950;4.100;2023-02-05T09:38:06;29.67;;;5.13;;
52268;SDS011;38224;50.950;4.100;2023-02-05T09:40:35;32.10;;;6.00;;
52268;SDS011;38224;50.950;4.100;2023-02-05T09:43:10;33.90;;;5.97;;
52268;SDS011;38224;50.950;4.100;2023-02-05T09:45:55;51.72;;;8.52;;
52268;SDS011;38224;50.950;4.100;2023-02-05T09:51:06;36.15;;;5.78;;
52268;SDS011;38224;50.950;4.100;2023-02-05T09:53:34;34.08;;;5.88;;
52268;SDS011;38224;50.950;4.100;2023-02-05T09:56:01;42.55;;;6.07;;
52268;SDS011;38224;50.950;4.100;2023-02-05T09:58:29;31.95;;;5.90;;
52268;SDS011;38224;50.950;4.100;2023-02-05T10:01:06;47.92;;;7.43;;
52268;SDS011;38224;50.950;4.100;2023-02-05T10:14:02;43.55;;;6.68;;
52268;SDS011;38224;50.950;4.100;2023-02-05T10:16:52;37.47;;;6.13;;
52268;SDS011;38224;50.950;4.100;2023-02-05T10:19:25;31.85;;;6.50;;
52268;SDS011;38224;50.950;4.100;2023-02-05T10:22:03;32.28;;;6.25;;
52268;SDS011;38224;50.950;4.100;2023-02-05T10:24:46;28.40;;;4.80;;
52268;SDS011;38224;50.950;4.100;2023-02-05T10:32:17;39.25;;;6.45;;
52268;SDS011;38224;50.950;4.100;2023-02-05T10:37:26;33.78;;;5.00;;
52268;SDS011;38224;50.950;4.100;2023-02-05T10:39:54;41.25;;;7.63;;
52268;SDS011;38224;50.950;4.100;2023-02-05T10:53:13;35.22;;;5.20;;
52268;SDS011;38224;50.950;4.100;2023-02-05T10:55:40;38.72;;;6.22;;
52268;SDS011;38224;50.950;4.100;2023-02-05T10:58:15;41.20;;;7.05;;
52268;SDS011;38224;50.950;4.100;2023-02-05T11:00:45;34.92;;;5.38;;
52268;SDS011;38224;50.950;4.100;2023-02-05T11:03:10;32.30;;;5.72;;
52268;SDS011;38224;50.950;4.100;2023-02-05T11:05:39;30.73;;;4.68;;
52268;SDS011;38224;50.950;4.100;2023-02-05T11:08:05;28.73;;;5.00;;
52268;SDS011;38224;50.950;4.100;2023-02-05T11:10:51;33.70;;;5.03;;
52268;SDS011;38224;50.950;4.100;2023-02-05T11:13:17;28.98;;;5.70;;
52268;SDS011;38224;50.950;4.100;2023-02-05T11:15:55;31.52;;;5.40;;
52268;SDS011;38224;50.950;4.100;2023-02-05T11:18:43;26.92;;;5.35;;
52268;SDS011;38224;50.950;4.100;2023-02-05T11:21:06;37.33;;;5.28;;
52268;SDS011;38224;50.950;4.100;2023-02-05T11:23:33;29.90;;;6.18;;
52268;SDS011;38224;50.950;4.100;2023-02-05T11:26:22;30.15;;;6.40;;
52268;SDS011;38224;50.950;4.100;2023-02-05T11:28:48;28.02;;;5.03;;
52268;SDS011;38224;50.950;4.100;2023-02-05T11:31:24;40.80;;;5.78;;
52268;SDS011;38224;50.950;4.100;2023-02-05T11:33:50;36.40;;;5.65;;
52268;SDS011;38224;50.950;4.100;2023-02-05T11:36:20;33.67;;;6.05;;
52268;SDS011;38224;50.950;4.100;2023-02-05T11:38:47;32.00;;;5.35;;
52268;SDS011;38224;50.950;4.100;2023-02-05T11:41:25;37.97;;;5.82;;
52268;SDS011;38224;50.950;4.100;2023-02-05T11:43:51;29.88;;;4.85;;
52268;SDS011;38224;50.950;4.100;2023-02-05T11:46:18;42.35;;;7.05;;
52268;SDS011;38224;50.950;4.100;2023-02-05T11:48:45;30.27;;;6.25;;
52268;SDS011;38224;50.950;4.100;2023-02-05T11:51:15;32.75;;;5.65;;
52268;SDS011;38224;50.950;4.100;2023-02-05T11:53:56;40.92;;;9.07;;
52268;SDS011;38224;50.950;4.100;2023-02-05T11:56:22;26.42;;;5.60;;
52268;SDS011;38224;50.950;4.100;2023-02-05T11:59:33;31.27;;;7.53;;
52268;SDS011;38224;50.950;4.100;2023-02-05T12:01:34;26.75;;;4.93;;
52268;SDS011;38224;50.950;4.100;2023-02-05T12:04:00;25.23;;;5.35;;
52268;SDS011;38224;50.950;4.100;2023-02-05T12:06:42;24.63;;;5.05;;
52268;SDS011;38224;50.950;4.100;2023-02-05T12:09:10;28.02;;;5.65;;
52268;SDS011;38224;50.950;4.100;2023-02-05T12:11:43;35.80;;;6.05;;
52268;SDS011;38224;50.950;4.100;2023-02-05T12:19:31;39.10;;;6.95;;
52268;SDS011;38224;50.950;4.100;2023-02-05T12:30:25;31.33;;;6.03;;
52268;SDS011;38224;50.950;4.100;2023-02-05T12:35:28;25.35;;;5.78;;
52268;SDS011;38224;50.950;4.100;2023-02-05T12:38:57;37.25;;;6.45;;
52268;SDS011;38224;50.950;4.100;2023-02-05T12:40:58;33.53;;;5.38;;
52268;SDS011;38224;50.950;4.100;2023-02-05T12:43:39;31.30;;;6.43;;
52268;SDS011;38224;50.950;4.100;2023-02-05T12:53:53;31.65;;;4.45;;
52268;SDS011;38224;50.950;4.100;2023-02-05T12:58:58;29.05;;;4.80;;
52268;SDS011;38224;50.950;4.100;2023-02-05T13:01:46;31.40;;;5.18;;
52268;SDS011;38224;50.950;4.100;2023-02-05T13:06:54;34.28;;;5.10;;
52268;SDS011;38224;50.950;4.100;2023-02-05T13:09:22;34.58;;;6.30;;
52268;SDS011;38224;50.950;4.100;2023-02-05T13:14:20;28.65;;;5.43;;
52268;SDS011;38224;50.950;4.100;2023-02-05T13:17:05;28.13;;;4.68;;
52268;SDS011;38224;50.950;4.100;2023-02-05T13:19:37;35.45;;;5.55;;
52268;SDS011;38224;50.950;4.100;2023-02-05T13:22:12;31.23;;;4.85;;
52268;SDS011;38224;50.950;4.100;2023-02-05T13:27:44;32.75;;;6.03;;
52268;SDS011;38224;50.950;4.100;2023-02-05T13:30:39;34.22;;;6.72;;
52268;SDS011;38224;50.950;4.100;2023-02-05T13:33:05;26.15;;;5.47;;
52268;SDS011;38224;50.950;4.100;2023-02-05T13:35:38;34.63;;;5.10;;
52268;SDS011;38224;50.950;4.100;2023-02-05T13:55:47;33.65;;;5.97;;
52268;SDS011;38224;50.950;4.100;2023-02-05T14:00:50;36.13;;;4.15;;
52268;SDS011;38224;50.950;4.100;2023-02-05T14:03:26;31.63;;;5.28;;
52268;SDS011;38224;50.950;4.100;2023-02-05T14:05:54;28.20;;;4.85;;
52268;SDS011;38224;50.950;4.100;2023-02-05T14:08:26;29.70;;;6.13;;
52268;SDS011;38224;50.950;4.100;2023-02-05T14:10:55;32.35;;;5.20;;
52268;SDS011;38224;50.950;4.100;2023-02-05T14:13:26;36.95;;;5.43;;
52268;SDS011;38224;50.950;4.100;2023-02-05T14:18:44;26.55;;;5.18;;
52268;SDS011;38224;50.950;4.100;2023-02-05T14:21:46;30.08;;;5.05;;
52268;SDS011;38224;50.950;4.100;2023-02-05T14:26:53;33.85;;;5.25;;
52268;SDS011;38224;50.950;4.100;2023-02-05T14:29:43;28.58;;;4.68;;
52268;SDS011;38224;50.950;4.100;2023-02-05T14:39:57;26.60;;;5.28;;
52268;SDS011;38224;50.950;4.100;2023-02-05T14:42:23;34.45;;;5.38;;
52268;SDS011;38224;50.950;4.100;2023-02-05T14:44:54;44.40;;;5.57;;
52268;SDS011;38224;50.950;4.100;2023-02-05T14:47:29;33.72;;;5.00;;
52268;SDS011;38224;50.950;4.100;2023-02-05T14:50:10;33.17;;;5.80;;
52268;SDS011;38224;50.950;4.100;2023-02-05T14:52:51;29.35;;;5.63;;
52268;SDS011;38224;50.950;4.100;2023-02-05T14:55:24;24.40;;;4.78;;
52268;SDS011;38224;50.950;4.100;2023-02-05T15:00:28;31.50;;;5.88;;
52268;SDS011;38224;50.950;4.100;2023-02-05T15:10:34;33.08;;;4.70;;
52268;SDS011;38224;50.950;4.100;2023-02-05T15:13:02;38.83;;;5.07;;
52268;SDS011;38224;50.950;4.100;2023-02-05T15:15:33;27.63;;;4.40;;
52268;SDS011;38224;50.950;4.100;2023-02-05T15:18:41;32.60;;;5.20;;
52268;SDS011;38224;50.950;4.100;2023-02-05T15:20:47;27.45;;;4.72;;
52268;SDS011;38224;50.950;4.100;2023-02-05T15:23:34;30.10;;;4.47;;
52268;SDS011;38224;50.950;4.100;2023-02-05T15:29:22;30.13;;;5.18;;
52268;SDS011;38224;50.950;4.100;2023-02-05T15:39:25;35.15;;;7.20;;
52268;SDS011;38224;50.950;4.100;2023-02-05T15:41:53;46.22;;;6.35;;
52268;SDS011;38224;50.950;4.100;2023-02-05T15:44:24;37.33;;;5.25;;
52268;SDS011;38224;50.950;4.100;2023-02-05T15:46:50;39.20;;;6.07;;
52268;SDS011;38224;50.950;4.100;2023-02-05T15:49:16;36.17;;;6.32;;
52268;SDS011;38224;50.950;4.100;2023-02-05T15:51:41;44.45;;;5.97;;
52268;SDS011;38224;50.950;4.100;2023-02-05T15:54:06;37.00;;;5.25;;
52268;SDS011;38224;50.950;4.100;2023-02-05T16:01:32;31.58;;;5.75;;
52268;SDS011;38224;50.950;4.100;2023-02-05T16:03:58;37.13;;;5.40;;
52268;SDS011;38224;50.950;4.100;2023-02-05T16:06:24;34.80;;;5.50;;
52268;SDS011;38224;50.950;4.100;2023-02-05T16:08:50;33.95;;;6.43;;
52268;SDS011;38224;50.950;4.100;2023-02-05T16:11:26;38.58;;;6.80;;
52268;SDS011;38224;50.950;4.100;2023-02-05T16:19:21;41.15;;;7.22;;
52268;SDS011;38224;50.950;4.100;2023-02-05T16:21:49;41.90;;;6.95;;
52268;SDS011;38224;50.950;4.100;2023-02-05T16:26:45;34.93;;;6.70;;
52268;SDS011;38224;50.950;4.100;2023-02-05T16:29:25;47.20;;;6.13;;
52268;SDS011;38224;50.950;4.100;2023-02-05T16:31:58;33.38;;;6.03;;
52268;SDS011;38224;50.950;4.100;2023-02-05T16:34:24;47.13;;;7.13;;
52268;SDS011;38224;50.950;4.100;2023-02-05T16:36:50;44.92;;;7.43;;
52268;SDS011;38224;50.950;4.100;2023-02-05T16:39:20;41.88;;;6.97;;
52268;SDS011;38224;50.950;4.100;2023-02-05T16:41:58;41.42;;;6.80;;
52268;SDS011;38224;50.950;4.100;2023-02-05T16:44:25;37.67;;;7.15;;
52268;SDS011;38224;50.950;4.100;2023-02-05T16:47:10;46.03;;;6.43;;
52268;SDS011;38224;50.950;4.100;2023-02-05T16:49:36;42.83;;;6.93;;
52268;SDS011;38224;50.950;4.100;2023-02-05T16:52:01;41.33;;;6.53;;
52268;SDS011;38224;50.950;4.100;2023-02-05T16:54:29;42.78;;;7.82;;
52268;SDS011;38224;50.950;4.100;2023-02-05T16:57:06;59.03;;;8.45;;
52268;SDS011;38224;50.950;4.100;2023-02-05T16:59:38;35.95;;;7.05;;
52268;SDS011;38224;50.950;4.100;2023-02-05T17:02:21;40.60;;;6.22;;
52268;SDS011;38224;50.950;4.100;2023-02-05T17:04:49;44.20;;;8.02;;
52268;SDS011;38224;50.950;4.100;2023-02-05T17:07:16;50.85;;;7.15;;
52268;SDS011;38224;50.950;4.100;2023-02-05T17:09:42;49.05;;;7.30;;
52268;SDS011;38224;50.950;4.100;2023-02-05T17:14:55;44.15;;;8.68;;
52268;SDS011;38224;50.950;4.100;2023-02-05T17:17:21;42.03;;;7.47;;
52268;SDS011;38224;50.950;4.100;2023-02-05T17:22:28;48.28;;;7.10;;
52268;SDS011;38224;50.950;4.100;2023-02-05T17:24:54;41.90;;;7.25;;